sensor_id;sensor_type;location;lat;lon;timestamp;P1;durP1;ratioP1;P2;durP2;ratioP2
10100;SDS011;5090;51.258;4.436;2022-12-18T00:03:48;89.27;;;36.27;;
10100;SDS011;5090;51.258;4.436;2022-12-18T00:06:29;91.40;;;36.53;;
10100;SDS011;5090;51.258;4.436;2022-12-18T00:09:17;93.90;;;35.70;;
10100;SDS011;5090;51.258;4.436;2022-12-18T00:12:19;94.17;;;35.03;;
10100;SDS011;5090;51.258;4.436;2022-12-18T00:15:00;89.27;;;35.43;;
10100;SDS011;5090;51.258;4.436;2022-12-18T00:17:34;106.83;;;37.50;;
10100;SDS011;5090;51.258;4.436;2022-12-18T00:20:05;90.47;;;35.13;;
10100;SDS011;5090;51.258;4.436;2022-12-18T00:22:33;101.37;;;36.63;;
10100;SDS011;5090;51.258;4.436;2022-12-18T00:25:01;98.53;;;36.30;;
10100;SDS011;5090;51.258;4.436;2022-12-18T00:27:30;96.83;;;37.83;;
10100;SDS011;5090;51.258;4.436;2022-12-18T00:29:58;104.27;;;37.60;;
10100;SDS011;5090;51.258;4.436;2022-12-18T00:32:26;94.90;;;36.23;;
10100;SDS011;5090;51.258;4.436;2022-12-18T00:34:55;99.87;;;38.60;;
10100;SDS011;5090;51.258;4.436;2022-12-18T00:37:23;86.77;;;35.40;;
10100;SDS011;5090;51.258;4.436;2022-12-18T00:39:51;102.03;;;37.17;;
10100;SDS011;5090;51.258;4.436;2022-12-18T00:42:19;88.27;;;34.73;;
10100;SDS011;5090;51.258;4.436;2022-12-18T00:44:53;92.80;;;35.47;;
10100;SDS011;5090;51.258;4.436;2022-12-18T00:47:21;98.77;;;35.83;;
10100;SDS011;5090;51.258;4.436;2022-12-18T00:49:50;99.03;;;36.50;;
10100;SDS011;5090;51.258;4.436;2022-12-18T00:52:18;90.23;;;37.57;;
10100;SDS011;5090;51.258;4.436;2022-12-18T00:54:47;106.23;;;38.60;;
10100;SDS011;5090;51.258;4.436;2022-12-18T00:57:20;101.97;;;38.67;;
10100;SDS011;5090;51.258;4.436;2022-12-18T00:59:49;92.17;;;36.80;;
10100;SDS011;5090;51.258;4.436;2022-12-18T01:02:17;94.40;;;36.60;;
10100;SDS011;5090;51.258;4.436;2022-12-18T01:04:45;91.87;;;36.20;;
10100;SDS011;5090;51.258;4.436;2022-12-18T01:07:13;94.47;;;36.00;;
10100;SDS011;5090;51.258;4.436;2022-12-18T01:09:41;100.07;;;37.63;;
10100;SDS011;5090;51.258;4.436;2022-12-18T01:12:10;92.33;;;35.67;;
10100;SDS011;5090;51.258;4.436;2022-12-18T01:14:38;88.50;;;35.20;;
10100;SDS011;5090;51.258;4.436;2022-12-18T01:17:06;80.37;;;33.47;;
10100;SDS011;5090;51.258;4.436;2022-12-18T01:19:35;91.97;;;35.37;;
10100;SDS011;5090;51.258;4.436;2022-12-18T01:22:03;92.40;;;35.27;;
10100;SDS011;5090;51.258;4.436;2022-12-18T01:24:31;94.57;;;32.70;;
10100;SDS011;5090;51.258;4.436;2022-12-18T01:27:00;87.87;;;31.47;;
10100;SDS011;5090;51.258;4.436;2022-12-18T01:29:28;81.57;;;35.30;;
10100;SDS011;5090;51.258;4.436;2022-12-18T01:31:56;91.43;;;35.27;;
10100;SDS011;5090;51.258;4.436;2022-12-18T01:34:24;88.37;;;32.60;;
10100;SDS011;5090;51.258;4.436;2022-12-18T01:36:53;91.27;;;34.83;;
10100;SDS011;5090;51.258;4.436;2022-12-18T01:39:21;96.07;;;36.07;;
10100;SDS011;5090;51.258;4.436;2022-12-18T01:41:49;80.97;;;33.20;;
10100;SDS011;5090;51.258;4.436;2022-12-18T01:46:57;94.37;;;33.73;;
10100;SDS011;5090;51.258;4.436;2022-12-18T01:49:25;81.37;;;33.43;;
10100;SDS011;5090;51.258;4.436;2022-12-18T01:51:54;85.53;;;33.17;;
10100;SDS011;5090;51.258;4.436;2022-12-18T01:54:22;77.23;;;32.87;;
10100;SDS011;5090;51.258;4.436;2022-12-18T01:56:50;71.70;;;30.53;;
10100;SDS011;5090;51.258;4.436;2022-12-18T01:59:19;71.57;;;30.20;;
10100;SDS011;5090;51.258;4.436;2022-12-18T02:01:47;74.30;;;29.53;;
10100;SDS011;5090;51.258;4.436;2022-12-18T02:04:19;69.90;;;30.20;;
10100;SDS011;5090;51.258;4.436;2022-12-18T02:06:46;74.50;;;30.37;;
10100;SDS011;5090;51.258;4.436;2022-12-18T02:09:17;67.83;;;30.30;;
10100;SDS011;5090;51.258;4.436;2022-12-18T02:14:53;61.40;;;28.20;;
10100;SDS011;5090;51.258;4.436;2022-12-18T02:17:18;70.70;;;29.33;;
10100;SDS011;5090;51.258;4.436;2022-12-18T02:19:57;70.33;;;29.40;;
10100;SDS011;5090;51.258;4.436;2022-12-18T02:22:28;66.37;;;28.77;;
10100;SDS011;5090;51.258;4.436;2022-12-18T02:27:40;62.43;;;27.80;;
10100;SDS011;5090;51.258;4.436;2022-12-18T02:30:08;60.10;;;26.67;;
10100;SDS011;5090;51.258;4.436;2022-12-18T02:32:38;62.57;;;28.23;;
10100;SDS011;5090;51.258;4.436;2022-12-18T02:35:05;57.80;;;26.17;;
10100;SDS011;5090;51.258;4.436;2022-12-18T02:37:34;51.70;;;24.80;;
10100;SDS011;5090;51.258;4.436;2022-12-18T02:40:02;61.67;;;26.60;;
10100;SDS011;5090;51.258;4.436;2022-12-18T02:42:30;66.53;;;29.97;;
10100;SDS011;5090;51.258;4.436;2022-12-18T02:44:58;66.63;;;25.50;;
10100;SDS011;5090;51.258;4.436;2022-12-18T02:47:28;54.70;;;25.57;;
10100;SDS011;5090;51.258;4.436;2022-12-18T02:50:31;54.17;;;24.70;;
10100;SDS011;5090;51.258;4.436;2022-12-18T02:53:51;53.67;;;24.80;;
10100;SDS011;5090;51.258;4.436;2022-12-18T02:55:34;51.03;;;24.97;;
10100;SDS011;5090;51.258;4.436;2022-12-18T03:00:41;55.73;;;25.70;;
10100;SDS011;5090;51.258;4.436;2022-12-18T03:03:16;52.97;;;23.90;;
10100;SDS011;5090;51.258;4.436;2022-12-18T03:05:44;60.47;;;25.83;;
10100;SDS011;5090;51.258;4.436;2022-12-18T03:08:14;53.27;;;25.30;;
10100;SDS011;5090;51.258;4.436;2022-12-18T03:10:45;50.37;;;25.27;;
10100;SDS011;5090;51.258;4.436;2022-12-18T03:13:11;54.77;;;25.83;;
10100;SDS011;5090;51.258;4.436;2022-12-18T03:15:38;58.63;;;24.10;;
10100;SDS011;5090;51.258;4.436;2022-12-18T03:18:08;56.67;;;22.50;;
10100;SDS011;5090;51.258;4.436;2022-12-18T03:20:35;54.10;;;23.73;;
10100;SDS011;5090;51.258;4.436;2022-12-18T03:23:06;53.20;;;23.13;;
10100;SDS011;5090;51.258;4.436;2022-12-18T03:25:32;55.93;;;25.47;;
10100;SDS011;5090;51.258;4.436;2022-12-18T03:28:00;52.43;;;23.60;;
10100;SDS011;5090;51.258;4.436;2022-12-18T03:30:28;55.80;;;23.40;;
10100;SDS011;5090;51.258;4.436;2022-12-18T03:32:59;48.67;;;22.97;;
10100;SDS011;5090;51.258;4.436;2022-12-18T03:35:26;46.27;;;22.23;;
10100;SDS011;5090;51.258;4.436;2022-12-18T03:37:53;51.97;;;23.87;;
10100;SDS011;5090;51.258;4.436;2022-12-18T03:40:22;52.37;;;23.80;;
10100;SDS011;5090;51.258;4.436;2022-12-18T03:42:51;49.43;;;23.27;;
10100;SDS011;5090;51.258;4.436;2022-12-18T03:45:34;49.90;;;23.33;;
10100;SDS011;5090;51.258;4.436;2022-12-18T03:48:06;46.83;;;21.90;;
10100;SDS011;5090;51.258;4.436;2022-12-18T03:50:37;54.67;;;23.10;;
10100;SDS011;5090;51.258;4.436;2022-12-18T03:53:12;45.37;;;21.73;;
10100;SDS011;5090;51.258;4.436;2022-12-18T03:55:37;47.23;;;22.17;;
10100;SDS011;5090;51.258;4.436;2022-12-18T03:58:05;51.23;;;23.67;;
10100;SDS011;5090;51.258;4.436;2022-12-18T04:00:33;46.30;;;21.73;;
10100;SDS011;5090;51.258;4.436;2022-12-18T04:03:01;49.73;;;23.07;;
10100;SDS011;5090;51.258;4.436;2022-12-18T04:05:30;49.63;;;23.63;;
10100;SDS011;5090;51.258;4.436;2022-12-18T04:07:58;51.33;;;21.47;;
10100;SDS011;5090;51.258;4.436;2022-12-18T04:10:26;49.13;;;23.47;;
10100;SDS011;5090;51.258;4.436;2022-12-18T04:12:55;47.30;;;23.00;;
10100;SDS011;5090;51.258;4.436;2022-12-18T04:15:23;45.90;;;22.53;;
10100;SDS011;5090;51.258;4.436;2022-12-18T04:17:52;44.83;;;22.73;;
10100;SDS011;5090;51.258;4.436;2022-12-18T04:20:20;41.20;;;22.47;;
10100;SDS011;5090;51.258;4.436;2022-12-18T04:22:48;45.23;;;21.13;;
10100;SDS011;5090;51.258;4.436;2022-12-18T04:25:16;47.27;;;22.07;;
10100;SDS011;5090;51.258;4.436;2022-12-18T04:27:44;46.10;;;22.20;;
10100;SDS011;5090;51.258;4.436;2022-12-18T04:30:13;44.83;;;21.90;;
10100;SDS011;5090;51.258;4.436;2022-12-18T04:32:41;48.60;;;23.70;;
10100;SDS011;5090;51.258;4.436;2022-12-18T04:35:09;42.00;;;21.67;;
10100;SDS011;5090;51.258;4.436;2022-12-18T04:37:37;47.00;;;23.07;;
10100;SDS011;5090;51.258;4.436;2022-12-18T04:40:06;41.80;;;23.20;;
10100;SDS011;5090;51.258;4.436;2022-12-18T04:42:34;48.97;;;24.17;;
10100;SDS011;5090;51.258;4.436;2022-12-18T04:45:02;45.23;;;22.17;;
10100;SDS011;5090;51.258;4.436;2022-12-18T04:47:31;44.37;;;21.73;;
10100;SDS011;5090;51.258;4.436;2022-12-18T04:49:59;41.33;;;22.47;;
10100;SDS011;5090;51.258;4.436;2022-12-18T04:52:27;45.13;;;22.00;;
10100;SDS011;5090;51.258;4.436;2022-12-18T04:54:55;45.30;;;23.87;;
10100;SDS011;5090;51.258;4.436;2022-12-18T04:57:23;41.37;;;21.73;;
10100;SDS011;5090;51.258;4.436;2022-12-18T04:59:52;39.50;;;21.90;;
10100;SDS011;5090;51.258;4.436;2022-12-18T05:02:20;38.67;;;21.13;;
10100;SDS011;5090;51.258;4.436;2022-12-18T05:04:48;41.67;;;21.27;;
10100;SDS011;5090;51.258;4.436;2022-12-18T05:07:17;39.43;;;20.30;;
10100;SDS011;5090;51.258;4.436;2022-12-18T05:09:45;43.73;;;21.10;;
10100;SDS011;5090;51.258;4.436;2022-12-18T05:12:13;37.20;;;20.77;;
10100;SDS011;5090;51.258;4.436;2022-12-18T05:14:42;39.03;;;20.40;;
10100;SDS011;5090;51.258;4.436;2022-12-18T05:17:10;40.67;;;21.97;;
10100;SDS011;5090;51.258;4.436;2022-12-18T05:19:38;40.80;;;19.90;;
10100;SDS011;5090;51.258;4.436;2022-12-18T05:22:06;35.53;;;20.23;;
10100;SDS011;5090;51.258;4.436;2022-12-18T05:24:35;39.00;;;19.97;;
10100;SDS011;5090;51.258;4.436;2022-12-18T05:27:03;42.50;;;20.27;;
10100;SDS011;5090;51.258;4.436;2022-12-18T05:29:31;39.73;;;20.40;;
10100;SDS011;5090;51.258;4.436;2022-12-18T05:31:59;39.63;;;20.53;;
10100;SDS011;5090;51.258;4.436;2022-12-18T05:34:28;37.63;;;20.40;;
10100;SDS011;5090;51.258;4.436;2022-12-18T05:36:56;43.50;;;21.83;;
10100;SDS011;5090;51.258;4.436;2022-12-18T05:39:24;40.27;;;19.47;;
10100;SDS011;5090;51.258;4.436;2022-12-18T05:41:52;37.77;;;18.70;;
10100;SDS011;5090;51.258;4.436;2022-12-18T05:44:21;38.57;;;19.60;;
10100;SDS011;5090;51.258;4.436;2022-12-18T05:46:49;38.40;;;19.57;;
10100;SDS011;5090;51.258;4.436;2022-12-18T05:49:17;36.73;;;18.40;;
10100;SDS011;5090;51.258;4.436;2022-12-18T05:51:46;42.70;;;18.17;;
10100;SDS011;5090;51.258;4.436;2022-12-18T05:54:14;35.87;;;18.33;;
10100;SDS011;5090;51.258;4.436;2022-12-18T05:56:42;36.83;;;18.30;;
10100;SDS011;5090;51.258;4.436;2022-12-18T05:59:10;35.73;;;16.37;;
10100;SDS011;5090;51.258;4.436;2022-12-18T06:01:39;44.27;;;17.70;;
10100;SDS011;5090;51.258;4.436;2022-12-18T06:04:07;42.53;;;18.60;;
10100;SDS011;5090;51.258;4.436;2022-12-18T06:06:35;29.83;;;17.67;;
10100;SDS011;5090;51.258;4.436;2022-12-18T06:09:04;40.33;;;17.93;;
10100;SDS011;5090;51.258;4.436;2022-12-18T06:11:33;31.53;;;17.43;;
10100;SDS011;5090;51.258;4.436;2022-12-18T06:14:01;32.90;;;16.33;;
10100;SDS011;5090;51.258;4.436;2022-12-18T06:16:30;35.43;;;16.87;;
10100;SDS011;5090;51.258;4.436;2022-12-18T06:18:58;32.97;;;16.37;;
10100;SDS011;5090;51.258;4.436;2022-12-18T06:21:26;31.00;;;17.33;;
10100;SDS011;5090;51.258;4.436;2022-12-18T06:23:54;34.40;;;16.80;;
10100;SDS011;5090;51.258;4.436;2022-12-18T06:26:22;31.07;;;16.27;;
10100;SDS011;5090;51.258;4.436;2022-12-18T06:28:50;33.17;;;17.47;;
10100;SDS011;5090;51.258;4.436;2022-12-18T06:31:19;31.33;;;16.17;;
10100;SDS011;5090;51.258;4.436;2022-12-18T06:33:47;34.53;;;16.13;;
10100;SDS011;5090;51.258;4.436;2022-12-18T06:36:16;29.60;;;15.73;;
10100;SDS011;5090;51.258;4.436;2022-12-18T06:38:44;34.27;;;15.93;;
10100;SDS011;5090;51.258;4.436;2022-12-18T06:41:13;33.63;;;16.37;;
10100;SDS011;5090;51.258;4.436;2022-12-18T06:43:41;33.70;;;16.43;;
10100;SDS011;5090;51.258;4.436;2022-12-18T06:46:09;29.40;;;15.90;;
10100;SDS011;5090;51.258;4.436;2022-12-18T06:48:37;33.20;;;16.63;;
10100;SDS011;5090;51.258;4.436;2022-12-18T06:51:05;29.23;;;17.23;;
10100;SDS011;5090;51.258;4.436;2022-12-18T06:53:33;31.80;;;17.60;;
10100;SDS011;5090;51.258;4.436;2022-12-18T06:56:02;36.37;;;16.63;;
10100;SDS011;5090;51.258;4.436;2022-12-18T06:58:30;31.40;;;16.57;;
10100;SDS011;5090;51.258;4.436;2022-12-18T07:01:00;28.20;;;16.90;;
10100;SDS011;5090;51.258;4.436;2022-12-18T07:03:27;31.70;;;16.10;;
10100;SDS011;5090;51.258;4.436;2022-12-18T07:05:56;26.80;;;15.67;;
10100;SDS011;5090;51.258;4.436;2022-12-18T07:08:24;37.37;;;16.87;;
10100;SDS011;5090;51.258;4.436;2022-12-18T07:10:52;31.00;;;17.27;;
10100;SDS011;5090;51.258;4.436;2022-12-18T07:13:21;33.90;;;16.90;;
10100;SDS011;5090;51.258;4.436;2022-12-18T07:15:49;34.07;;;16.70;;
10100;SDS011;5090;51.258;4.436;2022-12-18T07:18:17;37.40;;;16.97;;
10100;SDS011;5090;51.258;4.436;2022-12-18T07:20:45;32.30;;;16.27;;
10100;SDS011;5090;51.258;4.436;2022-12-18T07:23:14;31.83;;;16.53;;
10100;SDS011;5090;51.258;4.436;2022-12-18T07:25:42;32.97;;;17.27;;
10100;SDS011;5090;51.258;4.436;2022-12-18T07:28:10;34.30;;;18.23;;
10100;SDS011;5090;51.258;4.436;2022-12-18T07:30:39;36.53;;;18.87;;
10100;SDS011;5090;51.258;4.436;2022-12-18T07:33:08;33.37;;;17.17;;
10100;SDS011;5090;51.258;4.436;2022-12-18T07:35:36;32.27;;;17.20;;
10100;SDS011;5090;51.258;4.436;2022-12-18T07:38:04;37.27;;;16.83;;
10100;SDS011;5090;51.258;4.436;2022-12-18T07:40:32;34.37;;;16.80;;
10100;SDS011;5090;51.258;4.436;2022-12-18T07:43:01;35.23;;;18.53;;
10100;SDS011;5090;51.258;4.436;2022-12-18T07:45:29;30.77;;;16.77;;
10100;SDS011;5090;51.258;4.436;2022-12-18T07:47:57;37.07;;;18.03;;
10100;SDS011;5090;51.258;4.436;2022-12-18T07:50:26;32.97;;;16.97;;
10100;SDS011;5090;51.258;4.436;2022-12-18T07:52:54;32.23;;;16.40;;
10100;SDS011;5090;51.258;4.436;2022-12-18T07:55:22;36.40;;;16.03;;
10100;SDS011;5090;51.258;4.436;2022-12-18T07:57:50;31.63;;;17.00;;
10100;SDS011;5090;51.258;4.436;2022-12-18T08:00:19;30.10;;;16.90;;
10100;SDS011;5090;51.258;4.436;2022-12-18T08:02:47;31.47;;;16.30;;
10100;SDS011;5090;51.258;4.436;2022-12-18T08:05:16;28.20;;;15.67;;
10100;SDS011;5090;51.258;4.436;2022-12-18T08:07:44;25.77;;;14.40;;
10100;SDS011;5090;51.258;4.436;2022-12-18T08:10:12;29.47;;;15.73;;
10100;SDS011;5090;51.258;4.436;2022-12-18T08:12:41;29.73;;;15.70;;
10100;SDS011;5090;51.258;4.436;2022-12-18T08:15:09;27.70;;;16.53;;
10100;SDS011;5090;51.258;4.436;2022-12-18T08:17:37;31.00;;;15.77;;
10100;SDS011;5090;51.258;4.436;2022-12-18T08:20:06;29.33;;;16.23;;
10100;SDS011;5090;51.258;4.436;2022-12-18T08:22:35;25.57;;;14.87;;
10100;SDS011;5090;51.258;4.436;2022-12-18T08:25:03;27.03;;;14.83;;
10100;SDS011;5090;51.258;4.436;2022-12-18T08:27:32;27.63;;;15.33;;
10100;SDS011;5090;51.258;4.436;2022-12-18T08:30:04;27.30;;;15.07;;
10100;SDS011;5090;51.258;4.436;2022-12-18T08:32:33;30.33;;;15.53;;
10100;SDS011;5090;51.258;4.436;2022-12-18T08:35:02;30.13;;;17.20;;
10100;SDS011;5090;51.258;4.436;2022-12-18T08:37:31;25.83;;;14.57;;
10100;SDS011;5090;51.258;4.436;2022-12-18T08:40:01;29.23;;;15.20;;
10100;SDS011;5090;51.258;4.436;2022-12-18T08:42:30;22.47;;;14.00;;
10100;SDS011;5090;51.258;4.436;2022-12-18T08:45:05;29.83;;;15.00;;
10100;SDS011;5090;51.258;4.436;2022-12-18T08:47:33;23.60;;;14.70;;
10100;SDS011;5090;51.258;4.436;2022-12-18T08:50:01;27.17;;;14.60;;
10100;SDS011;5090;51.258;4.436;2022-12-18T08:52:31;29.97;;;15.53;;
10100;SDS011;5090;51.258;4.436;2022-12-18T08:54:59;28.93;;;15.23;;
10100;SDS011;5090;51.258;4.436;2022-12-18T08:57:27;25.10;;;14.83;;
10100;SDS011;5090;51.258;4.436;2022-12-18T08:59:55;25.93;;;13.90;;
10100;SDS011;5090;51.258;4.436;2022-12-18T09:02:24;28.30;;;14.63;;
10100;SDS011;5090;51.258;4.436;2022-12-18T09:04:52;27.80;;;13.37;;
10100;SDS011;5090;51.258;4.436;2022-12-18T09:07:21;25.57;;;15.07;;
10100;SDS011;5090;51.258;4.436;2022-12-18T09:09:49;27.80;;;15.63;;
10100;SDS011;5090;51.258;4.436;2022-12-18T09:12:18;22.83;;;14.03;;
10100;SDS011;5090;51.258;4.436;2022-12-18T09:14:46;23.00;;;14.13;;
10100;SDS011;5090;51.258;4.436;2022-12-18T09:17:15;21.60;;;13.80;;
10100;SDS011;5090;51.258;4.436;2022-12-18T09:19:44;23.87;;;14.70;;
10100;SDS011;5090;51.258;4.436;2022-12-18T09:22:12;25.97;;;14.47;;
10100;SDS011;5090;51.258;4.436;2022-12-18T09:24:41;27.53;;;14.33;;
10100;SDS011;5090;51.258;4.436;2022-12-18T09:27:09;20.80;;;13.80;;
10100;SDS011;5090;51.258;4.436;2022-12-18T09:29:38;23.03;;;14.33;;
10100;SDS011;5090;51.258;4.436;2022-12-18T09:32:06;24.70;;;13.57;;
10100;SDS011;5090;51.258;4.436;2022-12-18T09:34:35;21.47;;;12.87;;
10100;SDS011;5090;51.258;4.436;2022-12-18T09:37:03;21.73;;;12.23;;
10100;SDS011;5090;51.258;4.436;2022-12-18T09:39:32;22.20;;;13.80;;
10100;SDS011;5090;51.258;4.436;2022-12-18T09:42:03;23.23;;;12.43;;
10100;SDS011;5090;51.258;4.436;2022-12-18T09:44:33;21.90;;;12.37;;
10100;SDS011;5090;51.258;4.436;2022-12-18T09:47:03;22.30;;;12.43;;
10100;SDS011;5090;51.258;4.436;2022-12-18T09:49:30;22.37;;;12.60;;
10100;SDS011;5090;51.258;4.436;2022-12-18T09:52:00;20.17;;;12.87;;
10100;SDS011;5090;51.258;4.436;2022-12-18T09:54:32;23.77;;;13.03;;
10100;SDS011;5090;51.258;4.436;2022-12-18T09:57:00;19.67;;;11.87;;
10100;SDS011;5090;51.258;4.436;2022-12-18T09:59:32;19.43;;;11.63;;
10100;SDS011;5090;51.258;4.436;2022-12-18T10:02:34;20.10;;;11.73;;
10100;SDS011;5090;51.258;4.436;2022-12-18T10:04:46;20.63;;;11.50;;
10100;SDS011;5090;51.258;4.436;2022-12-18T10:07:21;16.03;;;11.10;;
10100;SDS011;5090;51.258;4.436;2022-12-18T10:09:58;20.17;;;11.10;;
10100;SDS011;5090;51.258;4.436;2022-12-18T10:12:32;20.17;;;11.37;;
10100;SDS011;5090;51.258;4.436;2022-12-18T10:15:06;16.63;;;10.13;;
10100;SDS011;5090;51.258;4.436;2022-12-18T10:17:37;17.43;;;10.43;;
10100;SDS011;5090;51.258;4.436;2022-12-18T10:20:09;17.30;;;10.67;;
10100;SDS011;5090;51.258;4.436;2022-12-18T10:22:40;21.53;;;11.77;;
10100;SDS011;5090;51.258;4.436;2022-12-18T10:25:17;19.77;;;10.27;;
10100;SDS011;5090;51.258;4.436;2022-12-18T10:27:44;18.33;;;11.13;;
10100;SDS011;5090;51.258;4.436;2022-12-18T10:30:15;17.77;;;11.20;;
10100;SDS011;5090;51.258;4.436;2022-12-18T10:32:42;19.90;;;11.17;;
10100;SDS011;5090;51.258;4.436;2022-12-18T10:40:19;19.43;;;11.07;;
10100;SDS011;5090;51.258;4.436;2022-12-18T10:42:49;18.40;;;10.80;;
10100;SDS011;5090;51.258;4.436;2022-12-18T10:45:16;17.23;;;11.13;;
10100;SDS011;5090;51.258;4.436;2022-12-18T10:47:46;18.40;;;10.57;;
10100;SDS011;5090;51.258;4.436;2022-12-18T10:50:34;18.30;;;10.67;;
10100;SDS011;5090;51.258;4.436;2022-12-18T10:53:02;19.13;;;11.37;;
10100;SDS011;5090;51.258;4.436;2022-12-18T10:55:32;18.13;;;10.93;;
10100;SDS011;5090;51.258;4.436;2022-12-18T11:00:33;19.53;;;11.00;;
10100;SDS011;5090;51.258;4.436;2022-12-18T11:03:02;16.23;;;10.90;;
10100;SDS011;5090;51.258;4.436;2022-12-18T11:05:32;17.23;;;10.40;;
10100;SDS011;5090;51.258;4.436;2022-12-18T11:08:00;15.10;;;10.37;;
10100;SDS011;5090;51.258;4.436;2022-12-18T11:10:30;18.90;;;11.17;;
10100;SDS011;5090;51.258;4.436;2022-12-18T11:13:08;14.73;;;10.00;;
10100;SDS011;5090;51.258;4.436;2022-12-18T11:15:27;16.63;;;11.40;;
10100;SDS011;5090;51.258;4.436;2022-12-18T11:17:54;18.33;;;11.13;;
10100;SDS011;5090;51.258;4.436;2022-12-18T11:20:27;16.60;;;10.40;;
10100;SDS011;5090;51.258;4.436;2022-12-18T11:22:55;15.13;;;9.90;;
10100;SDS011;5090;51.258;4.436;2022-12-18T11:25:22;20.27;;;11.00;;
10100;SDS011;5090;51.258;4.436;2022-12-18T11:27:52;15.07;;;10.23;;
10100;SDS011;5090;51.258;4.436;2022-12-18T11:30:23;18.43;;;10.47;;
10100;SDS011;5090;51.258;4.436;2022-12-18T11:35:30;20.37;;;10.47;;
10100;SDS011;5090;51.258;4.436;2022-12-18T11:40:42;21.27;;;12.17;;
10100;SDS011;5090;51.258;4.436;2022-12-18T11:43:11;17.27;;;10.90;;
10100;SDS011;5090;51.258;4.436;2022-12-18T11:45:43;15.73;;;10.30;;
10100;SDS011;5090;51.258;4.436;2022-12-18T11:48:14;15.17;;;9.17;;
10100;SDS011;5090;51.258;4.436;2022-12-18T11:50:43;17.87;;;11.00;;
10100;SDS011;5090;51.258;4.436;2022-12-18T11:53:11;20.37;;;11.07;;
10100;SDS011;5090;51.258;4.436;2022-12-18T11:55:41;15.57;;;10.70;;
10100;SDS011;5090;51.258;4.436;2022-12-18T11:58:11;20.37;;;10.60;;
10100;SDS011;5090;51.258;4.436;2022-12-18T12:00:36;16.50;;;10.60;;
10100;SDS011;5090;51.258;4.436;2022-12-18T12:03:10;14.87;;;10.00;;
10100;SDS011;5090;51.258;4.436;2022-12-18T12:08:15;20.23;;;12.77;;
10100;SDS011;5090;51.258;4.436;2022-12-18T12:10:43;22.33;;;12.10;;
10100;SDS011;5090;51.258;4.436;2022-12-18T12:13:14;17.90;;;12.17;;
10100;SDS011;5090;51.258;4.436;2022-12-18T12:15:42;15.97;;;10.70;;
10100;SDS011;5090;51.258;4.436;2022-12-18T12:18:13;19.63;;;12.20;;
10100;SDS011;5090;51.258;4.436;2022-12-18T12:25:49;19.63;;;12.33;;
10100;SDS011;5090;51.258;4.436;2022-12-18T12:28:19;19.30;;;11.83;;
10100;SDS011;5090;51.258;4.436;2022-12-18T12:30:59;19.17;;;12.60;;
10100;SDS011;5090;51.258;4.436;2022-12-18T12:33:29;19.33;;;11.70;;
10100;SDS011;5090;51.258;4.436;2022-12-18T12:35:58;19.40;;;12.17;;
10100;SDS011;5090;51.258;4.436;2022-12-18T12:38:31;18.30;;;11.50;;
10100;SDS011;5090;51.258;4.436;2022-12-18T12:40:58;17.37;;;11.70;;
10100;SDS011;5090;51.258;4.436;2022-12-18T12:43:28;22.53;;;12.17;;
10100;SDS011;5090;51.258;4.436;2022-12-18T12:45:58;18.23;;;12.07;;
10100;SDS011;5090;51.258;4.436;2022-12-18T12:48:34;17.43;;;11.43;;
10100;SDS011;5090;51.258;4.436;2022-12-18T12:50:54;16.13;;;12.00;;
10100;SDS011;5090;51.258;4.436;2022-12-18T12:53:25;18.60;;;11.30;;
10100;SDS011;5090;51.258;4.436;2022-12-18T12:55:51;20.53;;;12.10;;
10100;SDS011;5090;51.258;4.436;2022-12-18T12:58:26;18.00;;;12.37;;
10100;SDS011;5090;51.258;4.436;2022-12-18T13:00:55;17.20;;;12.20;;
10100;SDS011;5090;51.258;4.436;2022-12-18T13:03:27;20.30;;;13.30;;
10100;SDS011;5090;51.258;4.436;2022-12-18T13:05:54;19.40;;;12.00;;
10100;SDS011;5090;51.258;4.436;2022-12-18T13:08:24;20.47;;;13.47;;
10100;SDS011;5090;51.258;4.436;2022-12-18T13:10:52;21.63;;;13.77;;
10100;SDS011;5090;51.258;4.436;2022-12-18T13:13:19;20.83;;;12.83;;
10100;SDS011;5090;51.258;4.436;2022-12-18T13:15:48;20.63;;;12.87;;
10100;SDS011;5090;51.258;4.436;2022-12-18T13:18:21;22.27;;;12.57;;
10100;SDS011;5090;51.258;4.436;2022-12-18T13:21:02;19.43;;;12.13;;
10100;SDS011;5090;51.258;4.436;2022-12-18T13:23:33;22.60;;;12.33;;
10100;SDS011;5090;51.258;4.436;2022-12-18T13:34:17;21.43;;;13.03;;
10100;SDS011;5090;51.258;4.436;2022-12-18T13:36:44;25.33;;;13.33;;
10100;SDS011;5090;51.258;4.436;2022-12-18T13:39:21;19.63;;;12.97;;
10100;SDS011;5090;51.258;4.436;2022-12-18T13:41:52;22.93;;;13.47;;
10100;SDS011;5090;51.258;4.436;2022-12-18T13:46:53;23.17;;;13.30;;
10100;SDS011;5090;51.258;4.436;2022-12-18T13:49:24;23.90;;;14.33;;
10100;SDS011;5090;51.258;4.436;2022-12-18T13:51:52;22.47;;;13.57;;
10100;SDS011;5090;51.258;4.436;2022-12-18T13:54:25;22.70;;;14.13;;
10100;SDS011;5090;51.258;4.436;2022-12-18T13:56:51;19.27;;;13.17;;
10100;SDS011;5090;51.258;4.436;2022-12-18T13:59:20;21.97;;;14.03;;
10100;SDS011;5090;51.258;4.436;2022-12-18T14:01:50;22.03;;;14.50;;
10100;SDS011;5090;51.258;4.436;2022-12-18T14:04:18;27.63;;;15.20;;
10100;SDS011;5090;51.258;4.436;2022-12-18T14:06:45;22.40;;;13.33;;
10100;SDS011;5090;51.258;4.436;2022-12-18T14:09:15;20.60;;;13.50;;
10100;SDS011;5090;51.258;4.436;2022-12-18T14:11:46;22.87;;;14.43;;
10100;SDS011;5090;51.258;4.436;2022-12-18T14:14:15;25.40;;;14.03;;
10100;SDS011;5090;51.258;4.436;2022-12-18T14:16:44;21.67;;;13.90;;
10100;SDS011;5090;51.258;4.436;2022-12-18T14:19:15;22.53;;;13.87;;
10100;SDS011;5090;51.258;4.436;2022-12-18T14:21:47;23.83;;;14.07;;
10100;SDS011;5090;51.258;4.436;2022-12-18T14:24:15;23.63;;;13.93;;
10100;SDS011;5090;51.258;4.436;2022-12-18T14:26:42;23.30;;;14.80;;
10100;SDS011;5090;51.258;4.436;2022-12-18T14:31:45;22.57;;;14.60;;
10100;SDS011;5090;51.258;4.436;2022-12-18T14:34:15;22.33;;;14.67;;
10100;SDS011;5090;51.258;4.436;2022-12-18T14:36:51;29.83;;;14.77;;
10100;SDS011;5090;51.258;4.436;2022-12-18T14:39:11;25.20;;;14.63;;
10100;SDS011;5090;51.258;4.436;2022-12-18T14:41:39;28.63;;;16.00;;
10100;SDS011;5090;51.258;4.436;2022-12-18T14:44:10;26.40;;;15.50;;
10100;SDS011;5090;51.258;4.436;2022-12-18T14:46:37;27.50;;;16.20;;
10100;SDS011;5090;51.258;4.436;2022-12-18T14:49:05;27.30;;;15.30;;
10100;SDS011;5090;51.258;4.436;2022-12-18T14:51:33;26.03;;;15.37;;
10100;SDS011;5090;51.258;4.436;2022-12-18T14:54:01;25.63;;;15.27;;
10100;SDS011;5090;51.258;4.436;2022-12-18T14:56:30;23.43;;;14.40;;
10100;SDS011;5090;51.258;4.436;2022-12-18T14:58:59;29.47;;;16.93;;
10100;SDS011;5090;51.258;4.436;2022-12-18T15:01:28;28.87;;;14.77;;
10100;SDS011;5090;51.258;4.436;2022-12-18T15:03:56;25.30;;;14.23;;
10100;SDS011;5090;51.258;4.436;2022-12-18T15:06:26;25.70;;;15.23;;
10100;SDS011;5090;51.258;4.436;2022-12-18T15:08:52;24.43;;;15.83;;
10100;SDS011;5090;51.258;4.436;2022-12-18T15:11:24;31.50;;;19.63;;
10100;SDS011;5090;51.258;4.436;2022-12-18T15:13:51;23.93;;;16.50;;
10100;SDS011;5090;51.258;4.436;2022-12-18T15:16:19;26.43;;;16.27;;
10100;SDS011;5090;51.258;4.436;2022-12-18T15:18:49;29.23;;;17.37;;
10100;SDS011;5090;51.258;4.436;2022-12-18T15:21:18;28.37;;;16.60;;
10100;SDS011;5090;51.258;4.436;2022-12-18T15:23:47;28.67;;;16.63;;
10100;SDS011;5090;51.258;4.436;2022-12-18T15:26:15;27.87;;;16.93;;
10100;SDS011;5090;51.258;4.436;2022-12-18T15:28:44;29.00;;;17.73;;
10100;SDS011;5090;51.258;4.436;2022-12-18T15:34:11;27.80;;;16.80;;
10100;SDS011;5090;51.258;4.436;2022-12-18T15:36:38;27.17;;;16.97;;